Home > Products > Valid Products > TAF

000
FTUS42 KTBW 231400 AAB
TAFFMY
TAF AMD
KFMY 231455Z 2315/2412 30005KT P6SM FEW020
      TEMPO 2315/2316 BKN025
     FM231800 27012KT P6SM SKC
     FM240200 VRB03KT P6SM SKC=



000
FTUS42 KTBW 231400 AAB
TAFRSW
TAF AMD
KRSW 231455Z 2315/2412 29005KT P6SM FEW020
      TEMPO 2315/2316 BKN020
     FM231800 28009KT P6SM SKC
     FM240200 VRB03KT P6SM SKC=



000
FTUS42 KTBW 231400 AAA
TAFTPA
TAF AMD
KTPA 231454Z 2315/2412 29007KT P6SM SCT020
     FM231800 27010KT P6SM SKC
     FM240200 VRB03KT P6SM SKC=



000
FTUS42 KTBW 231400 AAB
TAFPIE
TAF AMD
KPIE 231454Z 2315/2412 29006KT P6SM SCT020
      TEMPO 2315/2316 BKN015
     FM231800 30010KT P6SM SKC
     FM240200 VRB03KT P6SM SKC=



000
FTUS42 KTBW 231300 AAA
TAFFMY
TAF AMD
KFMY 231328Z 2313/2412 30005KT P6SM FEW020
      TEMPO 2313/2315 BKN020
     FM231800 27012KT P6SM SKC
     FM240200 VRB03KT P6SM SKC=



000
FTUS42 KTBW 231300 AAA
TAFRSW
TAF AMD
KRSW 231328Z 2313/2412 29005KT P6SM FEW020
      TEMPO 2313/2315 BKN020
     FM231800 28009KT P6SM SKC
     FM240200 VRB03KT P6SM SKC=



000
FTUS42 KTBW 231300 AAA
TAFPIE
TAF AMD
KPIE 231327Z 2313/2412 29006KT P6SM SCT020
      TEMPO 2313/2315 BKN015
     FM231800 30010KT P6SM SKC
     FM240200 VRB03KT P6SM SKC=



000
FTUS42 KTBW 231100
TAFRSW
TAF
KRSW 231131Z 2312/2412 29005KT P6SM FEW020
     FM231800 28009KT P6SM SKC
     FM240200 VRB03KT P6SM SKC=



000
FTUS42 KTBW 231100
TAFFMY
TAF
KFMY 231131Z 2312/2412 30005KT P6SM FEW020
     FM231800 27012KT P6SM SKC
     FM240200 VRB03KT P6SM SKC=



000
FTUS42 KTBW 231100
TAFPIE
TAF
KPIE 231131Z 2312/2412 29006KT P6SM SCT020
     FM231800 30010KT P6SM SKC
     FM240200 VRB03KT P6SM SKC=



000
FTUS42 KTBW 231100
TAFSRQ
TAF
KSRQ 231131Z 2312/2412 30007KT P6SM SCT025
      TEMPO 2312/2314 BKN025
     FM231800 29011KT P6SM SKC
     FM240200 VRB03KT P6SM SKC=



000
FTUS42 KTBW 231100
TAFTPA
TAF
KTPA 231131Z 2312/2412 29007KT P6SM SCT020
     FM231800 27010KT P6SM SKC
     FM240200 VRB03KT P6SM SKC=



000
FTUS42 KTBW 230900 AAB
TAFTPA
TAF AMD
KTPA 230902Z 2309/2406 26005KT P6SM SCT015 SCT250
      TEMPO 2309/2312 BKN015
     FM231400 28006KT P6SM FEW250
     FM231800 27008KT P6SM FEW040 FEW250
     FM240300 VRB03KT P6SM SKC=



000
FTUS42 KTBW 230800 AAA
TAFPIE
TAF AMD
KPIE 230828Z 2308/2406 25004KT P6SM SCT015 SCT250
      TEMPO 2308/2312 BKN015
     FM231400 32005KT P6SM FEW250
     FM231900 29010KT P6SM FEW250
     FM240200 29003KT P6SM SKC=



000
FTUS42 KTBW 230800 AAA
TAFTPA
TAF AMD
KTPA 230828Z 2308/2406 26006KT P6SM SCT015 SCT250
      TEMPO 2308/2312 BKN015
     FM231400 28004KT P6SM FEW250
     FM231800 27008KT P6SM FEW040 FEW250
     FM240300 VRB03KT P6SM SKC=



000
FTUS42 KTBW 230800 AAA
TAFSRQ
TAF AMD
KSRQ 230826Z 2308/2406 30003KT P6SM SCT015 SCT250
      TEMPO 2308/2312 BKN015
     FM231400 28004KT P6SM FEW250
     FM231800 29010KT P6SM FEW250
     FM240200 30004KT P6SM SKC=



000
FTUS42 KTBW 230500 RRA
TAFSRQ
TAF
KSRQ 230541Z 2306/2406 30003KT P6SM FEW150 SCT250
     FM231400 28004KT P6SM FEW250
     FM231800 29010KT P6SM FEW250
     FM240200 30004KT P6SM SKC=



000
FTUS42 KTBW 230500 RRA
TAFRSW
TAF
KRSW 230541Z 2306/2406 VRB03KT P6SM SCT250
     FM231400 29005KT P6SM FEW250
     FM231900 28010KT P6SM FEW250
     FM240200 VRB02KT P6SM SKC=



000
FTUS42 KTBW 230500 RRA
TAFTPA
TAF
KTPA 230541Z 2306/2406 00000KT P6SM FEW150 SCT250
     FM231400 28004KT P6SM FEW250
     FM231800 27008KT P6SM FEW040 FEW250
     FM240300 VRB03KT P6SM SKC=



000
FTUS42 KTBW 230500 RRA
TAFFMY
TAF
KFMY 230541Z 2306/2406 32004KT P6SM SCT250
     FM231400 32005KT P6SM FEW250
     FM231900 27011KT P6SM FEW250
     FM240200 VRB03KT P6SM SKC=



000
FTUS42 KTBW 230500 RRA
TAFPIE
TAF
KPIE 230541Z 2306/2406 27004KT P6SM FEW150 SCT250
     FM231400 32005KT P6SM FEW250
     FM231900 29010KT P6SM FEW250
     FM240200 29003KT P6SM SKC=



000
FTUS42 KTBW 230300 AAA
TAFTPA
TAF AMD
KTPA 230305Z 2303/2324 29003KT P6SM FEW150 SCT250
     FM231000 VRB04KT P6SM FEW010 SCT015
     FM231300 30005KT P6SM SCT020
     FM231700 28009KT P6SM SCT030 SCT250=



000
FTUS42 KTBW 222300
TAFFMY
TAF
KFMY 222333Z 2300/2324 29007KT P6SM FEW050 FEW250
     FM230300 VRB06KT P6SM FEW250
     FM231000 00000KT 6SM BR FEW010 SCT025
     FM231400 VRB04KT P6SM FEW010 SCT025
     FM231700 29010KT P6SM SCT030 SCT250=



000
FTUS42 KTBW 222300
TAFSRQ
TAF
KSRQ 222333Z 2300/2324 29007KT P6SM FEW050 SCT250
     FM231000 VRB03KT P6SM FEW010 SCT020
     FM231400 VRB05KT P6SM FEW015 SCT020
     FM231600 28009KT P6SM SCT025 SCT250=



000
FTUS42 KTBW 222300
TAFPIE
TAF
KPIE 222333Z 2300/2324 33007KT P6SM FEW050 SCT250
     FM231000 VRB04KT P6SM FEW010 SCT015
     FM231400 30006KT P6SM SCT020
     FM231900 29010KT P6SM SCT030 SCT250=



000
FTUS42 KTBW 222300
TAFRSW
TAF
KRSW 222333Z 2300/2324 30006KT P6SM FEW050 FEW250
     FM230300 VRB04KT P6SM FEW250
     FM231100 00000KT 6SM BR FEW010 SCT025
     FM231400 VRB04KT P6SM FEW010 SCT025
     FM231800 27009KT P6SM SCT030 SCT250=



000
FTUS42 KTBW 222300
TAFTPA
TAF
KTPA 222333Z 2300/2324 28007KT P6SM SCT050 SCT250
     FM231000 VRB04KT P6SM FEW010 SCT015
     FM231300 30005KT P6SM SCT020
     FM231700 28009KT P6SM SCT030 SCT250=



000
FTUS42 KTBW 222000 AAA
TAFTPA
TAF AMD
KTPA 222055Z 2221/2318 28011KT P6SM SCT030 SCT250
     FM230000 29007KT P6SM SCT040 SCT250
     FM231000 VRB06KT 6SM BR SCT250
     FM231500 28007KT P6SM SCT030 SCT250=



000
FTUS42 KTBW 222000 AAB
TAFSRQ
TAF AMD
KSRQ 222023Z 2220/2318 29012KT P6SM SCT030
     FM230000 28006KT P6SM SCT030 SCT250=



000
FTUS42 KTBW 222000 AAA
TAFPIE
TAF AMD
KPIE 222022Z 2220/2318 31008KT P6SM BKN035
     FM230000 28006KT P6SM SCT025 SCT250=



000
FTUS42 KTBW 221900 AAA
TAFSRQ
TAF AMD
KSRQ 221933Z 2220/2318 27012KT P6SM BKN030
     FM230000 28006KT P6SM SCT030 SCT250=



000
FTUS42 KTBW 221700
TAFTPA
TAF
KTPA 221729Z 2218/2318 26010KT P6SM BKN035
     FM222200 28007KT P6SM SCT040 SCT250=



000
FTUS42 KTBW 221700
TAFSRQ
TAF
KSRQ 221729Z 2218/2318 27009KT P6SM SCT040 SCT250=



000
FTUS42 KTBW 221700
TAFFMY
TAF
KFMY 221729Z 2218/2318 29010KT P6SM SCT040 SCT250
     FM230100 33006KT P6SM SCT250
     FM231600 29007KT P6SM SCT250=



000
FTUS42 KTBW 221700
TAFPIE
TAF
KPIE 221729Z 2218/2318 31008KT P6SM BKN025
     FM230000 28006KT P6SM SCT025 SCT250=



000
FTUS42 KTBW 221700
TAFRSW
TAF
KRSW 221729Z 2218/2318 31008KT P6SM SCT040 SCT250
     FM230100 30003KT P6SM SCT250
     FM231600 28007KT P6SM SCT250=



000
FTUS42 KTBW 221400 AAC
TAFPIE
TAF AMD
KPIE 221456Z 2215/2312 VRB04KT P6SM BKN025
     FM221800 27010KT P6SM SCT040 SCT250
     FM230100 28006KT P6SM SCT250=



000
FTUS42 KTBW 221400 AAA
TAFTPA
TAF AMD
KTPA 221456Z 2215/2312 24005KT P6SM SCT025
      TEMPO 2215/2218 BKN025
     FM221800 26010KT P6SM FEW045 SCT250
     FM230100 29005KT P6SM SCT250=



000
FTUS42 KTBW 221400 AAB
TAFSRQ
TAF AMD
KSRQ 221447Z 2215/2312 26005KT P6SM OVC035
     FM221800 27012KT P6SM SCT040 SCT250
     FM230100 29006KT P6SM SCT250=



000
FTUS42 KTBW 221400 AAB
TAFPIE
TAF AMD
KPIE 221445Z 2215/2312 VRB04KT P6SM BKN035
     FM221800 27010KT P6SM SCT040 SCT250
     FM230100 28006KT P6SM SCT250=



000
FTUS42 KTBW 221300 AAA
TAFSRQ
TAF AMD
KSRQ 221319Z 2213/2312 VRB03KT P6SM OVC035
      TEMPO 2213/2215 OVC030
     FM221500 26005KT P6SM SCT025 SCT250
     FM221800 27012KT P6SM FEW040 SCT250
     FM230100 29006KT P6SM SCT250=



000
FTUS42 KTBW 221300 AAA
TAFPIE
TAF AMD
KPIE 221318Z 2213/2312 34005KT P6SM FEW035 BKN250
     FM221500 VRB04KT P6SM SCT025 SCT250
     FM221800 27010KT P6SM FEW040 SCT250
     FM230100 28006KT P6SM SCT250=



000
FTUS42 KTBW 221100
TAFTPA
TAF
KTPA 221138Z 2212/2312 36005KT P6SM BKN250
     FM221400 24005KT P6SM SCT025 SCT250
     FM221800 26010KT P6SM FEW045 SCT250
     FM230100 29005KT P6SM SCT250=



000
FTUS42 KTBW 221100
TAFFMY
TAF
KFMY 221138Z 2212/2312 VRB04KT P6SM SCT250
     FM221800 27011KT P6SM FEW050 SCT250
     FM230100 30004KT P6SM SCT250=



000
FTUS42 KTBW 221100
TAFPIE
TAF
KPIE 221138Z 2212/2312 34005KT P6SM BKN030 BKN250
     FM221500 VRB04KT P6SM SCT025 SCT250
     FM221800 27010KT P6SM FEW040 SCT250
     FM230100 28006KT P6SM SCT250=



000
FTUS42 KTBW 221100
TAFRSW
TAF
KRSW 221138Z 2212/2312 VRB04KT P6SM SCT250
     FM221800 27008KT P6SM FEW050 SCT250
     FM230100 30003KT P6SM SCT250=



000
FTUS42 KTBW 221100
TAFSRQ
TAF
KSRQ 221138Z 2212/2312 VRB03KT P6SM OVC025
     FM221500 26005KT P6SM SCT025 SCT250
     FM221800 27012KT P6SM FEW040 SCT250
     FM230100 29006KT P6SM SCT250=



000
FTUS42 KTBW 220800 AAA
TAFTPA
TAF AMD
KTPA 220858Z 2209/2306 00000KT P6SM BKN250
     FM221400 25005KT P6SM SCT250
     FM221700 25008KT P6SM FEW040 SCT250
     FM230100 28006KT P6SM FEW150 SCT250=



000
FTUS42 KTBW 220500
TAFRSW
TAF
KRSW 220536Z 2206/2306 04003KT P6SM SCT250
     FM221300 VRB04KT P6SM FEW025 SCT250
     FM221800 25008KT P6SM FEW050 SCT250
     FM230100 29005KT P6SM FEW150 SCT250=



000
FTUS42 KTBW 220500
TAFPIE
TAF
KPIE 220536Z 2206/2306 VRB03KT P6SM SCT250
      TEMPO 2208/2211 5SM BR
     FM221400 VRB04KT P6SM SCT250
     FM221800 27008KT P6SM FEW040 SCT250
     FM230100 28007KT P6SM FEW150 SCT250=



000
FTUS42 KTBW 220500
TAFSRQ
TAF
KSRQ 220536Z 2206/2306 VRB03KT P6SM SCT250
      TEMPO 2208/2211 5SM BR
     FM221300 24004KT P6SM SCT250
     FM221800 27010KT P6SM FEW040 SCT250
     FM230100 29007KT P6SM FEW150 SCT250=



000
FTUS42 KTBW 220500
TAFTPA
TAF
KTPA 220536Z 2206/2306 VRB03KT P6SM SCT250
      TEMPO 2208/2211 5SM BR
     FM221400 25005KT P6SM SCT250
     FM221700 25008KT P6SM FEW040 SCT250
     FM230100 28006KT P6SM FEW150 SCT250=



000
FTUS42 KTBW 220500
TAFFMY
TAF
KFMY 220536Z 2206/2306 03003KT P6SM SCT250
     FM221300 09004KT P6SM FEW025 SCT250
     FM221800 26009KT P6SM FEW050 SCT250
     FM230100 30006KT P6SM FEW150 SCT250=



000
FTUS42 KTBW 220300 AAA
TAFTPA
TAF AMD
KTPA 220302Z 2203/2224 VRB04KT P6SM FEW025 SCT250
     FM220600 00000KT P6SM SCT035 SCT250
     FM221400 24007KT P6SM FEW025 SCT035 BKN250
     FM221700 25008KT P6SM BKN035 BKN250=



000
FTUS42 KTBW 212300
TAFTPA
TAF
KTPA 212321Z 2200/2224 03004KT P6SM BKN035
     FM220600 00000KT P6SM SCT035 SCT250
     FM221400 24007KT P6SM FEW025 SCT035 BKN250
     FM221700 25008KT P6SM BKN035 BKN250=



000
FTUS42 KTBW 212300
TAFPIE
TAF
KPIE 212321Z 2200/2224 34008KT P6SM SCT035
     FM220200 03005KT P6SM BKN035
     FM220600 VRB04KT P6SM SCT035 SCT250
     FM221400 05007KT P6SM FEW025 SCT035 BKN250
     FM221700 28009KT P6SM BKN035 BKN250=



000
FTUS42 KTBW 212300
TAFSRQ
TAF
KSRQ 212321Z 2200/2224 03007KT P6SM BKN035
     FM220600 06002KT P6SM SCT035 SCT250
     FM221500 28009KT P6SM FEW025 SCT035 BKN250
     FM221700 26010KT P6SM BKN035 BKN250=



000
FTUS42 KTBW 212300
TAFFMY
TAF
KFMY 212321Z 2200/2224 03005KT P6SM FEW035 SCT250
     FM220900 05002KT 6SM BR SCT015 SCT250
     FM221300 33005KT P6SM SCT025 BKN250
     FM221600 27009KT P6SM SCT035 BKN250=



000
FTUS42 KTBW 212300
TAFRSW
TAF
KRSW 212321Z 2200/2224 02005KT P6SM FEW035 SCT250
     FM220900 03002KT 6SM BR SCT015 SCT250
     FM221300 33005KT P6SM SCT025 BKN250
     FM221600 27009KT P6SM SCT035 BKN250=



000
FTUS42 KTBW 212100 AAA
TAFTPA
TAF AMD
KTPA 212105Z 2121/2218 03005KT P6SM BKN035
     FM220600 VRB04KT P6SM SCT030
     FM220800 VRB03KT P6SM FEW035
     FM221500 24007KT P6SM SCT250=



000
FTUS42 KTBW 211700
TAFFMY
TAF
KFMY 211740Z 2118/2218 35007KT P6SM SCT035
     FM212100 30007KT P6SM SCT035
     FM220100 34008KT P6SM SCT035
     FM220800 VRB04KT P6SM SCT035
     FM221500 27006KT P6SM SCT250=



000
FTUS42 KTBW 211700
TAFPIE
TAF
KPIE 211740Z 2118/2218 34008KT P6SM BKN025
     FM212100 32007KT P6SM SCT025 SCT250
     FM220200 01007KT P6SM FEW035
     FM220600 VRB05KT P6SM FEW150
     FM221500 25006KT P6SM SCT050 SCT250=



000
FTUS42 KTBW 211700
TAFTPA
TAF
KTPA 211740Z 2118/2218 33007KT P6SM BKN025
     FM212100 32006KT P6SM SCT025 SCT250
     FM220600 VRB04KT P6SM FEW200
     FM220800 VRB03KT P6SM FEW035
     FM221500 24007KT P6SM SCT250=



000
FTUS42 KTBW 211700
TAFRSW
TAF
KRSW 211740Z 2118/2218 34006KT P6SM SCT035
     FM220100 35007KT P6SM SCT035
     FM220600 VRB03KT P6SM SCT035
     FM221500 27006KT P6SM SCT250=



000
FTUS42 KTBW 211700
TAFSRQ
TAF
KSRQ 211740Z 2118/2218 02006KT P6SM BKN030
     FM212100 31007KT P6SM SCT025 SCT250
     FM220000 33007KT P6SM FEW025
     FM220700 VRB05KT P6SM SCT025
     FM221500 27005KT P6SM FEW250=



000
FTUS42 KTBW 211700 AAB
TAFPIE
TAF AMD
KPIE 211700Z 2117/2212 04006KT P6SM BKN025
     FM220200 VRB04KT P6SM SCT045 SCT250=



000
FTUS42 KTBW 211700 AAC
TAFTPA
TAF AMD
KTPA 211700Z 2117/2212 VRB05KT P6SM BKN025
     FM220000 VRB04KT P6SM SCT040 SCT250=



000
FTUS42 KTBW 211700 AAB
TAFSRQ
TAF AMD
KSRQ 211700Z 2117/2212 02006KT P6SM BKN025
     FM220200 06005KT P6SM SCT040 SCT250=



000
FTUS42 KTBW 211400 AAB
TAFTPA
TAF AMD
KTPA 211459Z 2115/2212 VRB05KT P6SM BKN025
     FM211700 28007KT P6SM FEW025 SCT050 SCT250
     FM220000 VRB04KT P6SM SCT040 SCT250=



000
FTUS42 KTBW 211300 AAA
TAFPIE
TAF AMD
KPIE 211359Z 2114/2212 04006KT P6SM BKN025
     FM211700 34007KT P6SM FEW025 SCT050 SCT250
     FM220200 VRB04KT P6SM SCT045 SCT250=



000
FTUS42 KTBW 211300 AAA
TAFSRQ
TAF AMD
KSRQ 211359Z 2114/2212 03006KT P6SM BKN025
     FM211700 33010KT P6SM FEW250
     FM220200 06005KT P6SM SCT040 SCT250=



000
FTUS42 KTBW 211300 AAA
TAFRSW
TAF AMD
KRSW 211359Z 2114/2212 01006KT P6SM BKN030
     FM211700 35009KT P6SM SCT040 SCT250
     FM220200 04004KT P6SM SCT045 SCT250=



000
FTUS42 KTBW 211300 AAA
TAFTPA
TAF AMD
KTPA 211359Z 2114/2212 VRB05KT P6SM BKN025
     FM211700 28007KT P6SM FEW025 SCT050 SCT250
     FM220000 VRB04KT P6SM SCT040 SCT250=



000
FTUS42 KTBW 211300 AAA
TAFFMY
TAF AMD
KFMY 211359Z 2114/2212 36007KT P6SM BKN030
     FM211700 33011KT P6SM SCT045 SCT250
     FM220300 03004KT P6SM SCT040 SCT250=



000
FTUS42 KTBW 211100
TAFTPA
TAF
KTPA 211137Z 2112/2212 04006KT P6SM FEW015 BKN020
     FM211400 VRB06KT P6SM SCT020
     FM211700 28007KT P6SM FEW025 SCT050 SCT250
     FM220000 VRB04KT P6SM SCT040 SCT250=



000
FTUS42 KTBW 211100
TAFFMY
TAF
KFMY 211137Z 2112/2212 03005KT P6SM FEW020 SCT250
     FM211700 33011KT P6SM SCT045 SCT250
     FM220300 03004KT P6SM SCT040 SCT250=



000
FTUS42 KTBW 211100
TAFSRQ
TAF
KSRQ 211137Z 2112/2212 04006KT P6SM BKN020
     FM211500 VRB06KT P6SM FEW020 SCT200
     FM211800 33010KT P6SM FEW250
     FM220200 06005KT P6SM SCT040 SCT250=



000
FTUS42 KTBW 211100
TAFRSW
TAF
KRSW 211137Z 2112/2212 VRB04KT P6SM FEW020 SCT250
     FM211900 35009KT P6SM SCT040 SCT250
     FM220200 04004KT P6SM SCT045 SCT250=



000
FTUS42 KTBW 211100
TAFPIE
TAF
KPIE 211137Z 2112/2212 05008KT P6SM FEW015 BKN020
     FM211400 04006KT P6SM SCT020
     FM211700 34007KT P6SM FEW025 SCT050 SCT250
     FM220200 VRB04KT P6SM SCT045 SCT250=



000
FTUS42 KTBW 210900 AAA
TAFPIE
TAF AMD
KPIE 210929Z 2109/2206 05008KT P6SM FEW015 BKN020
     FM211300 04006KT P6SM SCT020
     FM211600 34007KT P6SM FEW025 SCT050 SCT250
     FM220200 01006KT P6SM SCT045=



000
FTUS42 KTBW 210800 AAA
TAFTPA
TAF AMD
KTPA 210856Z 2109/2206 04006KT P6SM FEW015 BKN020
     FM211300 03006KT P6SM SCT020
     FM211600 28007KT P6SM FEW025 SCT050 SCT250
     FM220000 32008KT P6SM SCT050
     FM220400 VRB04KT P6SM SCT040=



000
FTUS42 KTBW 210700 AAA
TAFSRQ
TAF AMD
KSRQ 210745Z 2108/2206 03006KT P6SM BKN020
     FM211100 04005KT P6SM SCT020
     FM211500 VRB06KT P6SM FEW020 SCT200
     FM211800 31010KT P6SM FEW250
     FM220200 35007KT P6SM SCT050=



000
FTUS42 KTBW 210700 AAA
TAFFMY
TAF AMD
KFMY 210745Z 2108/2206 04007KT P6SM FEW025 SCT030
     FM211000 03005KT P6SM FEW020 SCT250
     FM211900 32009KT P6SM SCT250
     FM212300 30011KT P6SM SCT045
     FM220300 03006KT P6SM SCT040=



000
FTUS42 KTBW 210700 AAA
TAFRSW
TAF AMD
KRSW 210744Z 2108/2206 03005KT P6SM FEW025 SCT030
     FM210900 VRB04KT P6SM FEW020 SCT150
     FM212000 32009KT P6SM SCT250
     FM212200 31009KT P6SM SCT040
     FM220200 04005KT P6SM SCT045=



000
FTUS42 KTBW 210500 CCA
TAFRSW
TAF COR
KRSW 210558Z 2106/2206 03005KT P6SM FEW025 SCT030
      TEMPO 2107/2109 BKN030
     FM210900 VRB04KT P6SM FEW020 SCT150
     FM212000 32009KT P6SM SCT250
     FM212200 31009KT P6SM SCT040
     FM220200 04005KT P6SM SCT045=



000
FTUS42 KTBW 210500
TAFRSW
TAF
KRSW 210529Z 2106/2206 03005KT P6SM FEW025 SCT030
      TEMPO 2107/2109 BKN020
     FM210900 VRB04KT P6SM FEW020 SCT150
     FM212000 32009KT P6SM SCT250
     FM212200 31009KT P6SM SCT040
     FM220200 04005KT P6SM SCT045=



000
FTUS42 KTBW 210500
TAFFMY
TAF
KFMY 210529Z 2106/2206 04007KT P6SM FEW025 SCT030
      TEMPO 2106/2108 BKN030
     FM211000 03005KT P6SM FEW020 SCT250
     FM211900 32009KT P6SM SCT250
     FM212300 30011KT P6SM SCT045
     FM220300 03006KT P6SM SCT040=



000
FTUS42 KTBW 210500
TAFSRQ
TAF
KSRQ 210529Z 2106/2206 03006KT P6SM BKN020
      TEMPO 2106/2108 SCT020
     FM211100 04005KT P6SM SCT020
     FM211500 VRB06KT P6SM FEW020 SCT200
     FM211800 31010KT P6SM FEW250
     FM220200 35007KT P6SM SCT050=



000
FTUS42 KTBW 210500
TAFPIE
TAF
KPIE 210529Z 2106/2206 04009KT P6SM FEW015 BKN020
     FM211000 03006KT P6SM SCT020
     FM211600 34007KT P6SM FEW025 SCT050 SCT250
     FM220200 01006KT P6SM SCT045=



000
FTUS42 KTBW 210500
TAFTPA
TAF
KTPA 210529Z 2106/2206 04006KT P6SM FEW015 BKN020
     FM211000 03004KT P6SM SCT020
     FM211600 35007KT P6SM FEW025 SCT050 SCT250
     FM220000 32008KT P6SM SCT050
     FM220400 VRB04KT P6SM SCT040=



000
FTUS42 KTBW 210400 AAA
TAFFMY
TAF AMD
KFMY 210457Z 2105/2124 03006KT P6SM SCT030 BKN250
      TEMPO 2105/2109 BKN030
     FM211500 04008KT P6SM SCT035 SCT250
     FM211800 01008KT P6SM SCT040 SCT250
     FM212100 34008KT P6SM SCT050 SCT250=



000
FTUS42 KTBW 210300 AAA
TAFTPA
TAF AMD
KTPA 210306Z 2103/2124 03007KT P6SM BKN025
     FM210700 03005KT P6SM SCT025 BKN250
     FM211400 01008KT P6SM SCT025 SCT250
     FM211700 29008KT P6SM SCT035 SCT250=



000
FTUS42 KTBW 202300
TAFTPA
TAF
KTPA 202340Z 2100/2124 34006KT P6SM SCT030 SCT250
     FM210200 02005KT P6SM BKN025
     FM210700 03004KT P6SM SCT025 BKN250
     FM211400 01008KT P6SM SCT025 SCT250
     FM211700 29008KT P6SM SCT035 SCT250=



000
FTUS42 KTBW 202300
TAFPIE
TAF
KPIE 202340Z 2100/2124 34008KT P6SM SCT030 SCT250
     FM210200 03008KT P6SM BKN025
     FM210700 04007KT P6SM SCT025 BKN250
     FM211400 03007KT P6SM SCT025 SCT250
     FM211900 32009KT P6SM SCT035 SCT250=



000
FTUS42 KTBW 202300
TAFSRQ
TAF
KSRQ 202340Z 2100/2124 34008KT P6SM SCT030 SCT250
     FM210300 03006KT P6SM SCT030 SCT250
      TEMPO 2104/2108 BKN030
     FM210800 03005KT P6SM FEW025 BKN250
     FM211400 03008KT P6SM SCT025 SCT250
     FM211800 33009KT P6SM SCT035 SCT250=



000
FTUS42 KTBW 202300
TAFFMY
TAF
KFMY 202340Z 2100/2124 36007KT P6SM SCT040 SCT250
      TEMPO 2100/2103 BKN040
     FM210300 03006KT P6SM SCT040 SCT250
     FM210600 03005KT P6SM SCT030 BKN250
      TEMPO 2108/2112 BKN030
     FM211500 04008KT P6SM SCT035 SCT250
     FM211800 01008KT P6SM SCT040 SCT250
     FM212100 34008KT P6SM SCT050 SCT250=



000
FTUS42 KTBW 202300
TAFRSW
TAF
KRSW 202340Z 2100/2124 36007KT P6SM SCT040 SCT250
      TEMPO 2100/2103 BKN040
     FM210300 03006KT P6SM SCT040 SCT250
     FM210600 03005KT P6SM SCT030 BKN250
      TEMPO 2108/2112 BKN030
     FM211500 04008KT P6SM SCT035 SCT250
     FM211800 01008KT P6SM SCT040 SCT250
     FM212100 34008KT P6SM SCT050 SCT250=



000
FTUS42 KTBW 202100 AAB
TAFTPA
TAF AMD
KTPA 202105Z 2021/2118 31010KT P6SM SCT025 BKN035
      TEMPO 2022/2101 BKN025
     FM210100 01006KT P6SM FEW050 SCT250
     FM210900 03005KT P6SM SCT025 BKN050=



000
FTUS42 KTBW 201900 AAA
TAFSRQ
TAF AMD
KSRQ 201915Z 2019/2118 34009KT P6SM BKN035
     FM210100 03006KT P6SM SCT050 SCT250
     FM210900 05003KT P6SM SCT250
     FM211500 04007KT P6SM SCT250=



000
FTUS42 KTBW 201900 AAA
TAFTPA
TAF AMD
KTPA 201915Z 2019/2118 35008KT P6SM BKN035
     FM210100 01006KT P6SM FEW050 SCT250
     FM210900 03005KT P6SM SCT025 BKN050=



000
FTUS42 KTBW 201700 RRA
TAFFMY
TAF
KFMY 201741Z 2018/2118 VRB05KT P6SM BKN035
     FM210200 02007KT P6SM SCT050 SCT250
     FM211200 04006KT P6SM SCT250=



000
FTUS42 KTBW 201700 RRA
TAFRSW
TAF
KRSW 201741Z 2018/2118 VRB04KT P6SM BKN035
     FM210100 01005KT P6SM SCT050 SCT250
     FM211200 04007KT P6SM SCT250=



000
FTUS42 KTBW 201700 RRA
TAFTPA
TAF
KTPA 201741Z 2018/2118 35008KT P6SM BKN025
     FM210100 01006KT P6SM FEW050 SCT250
     FM210900 03005KT P6SM SCT025 BKN050=



000
FTUS42 KTBW 201700 RRA
TAFPIE
TAF
KPIE 201741Z 2018/2118 03008KT P6SM BKN025
     FM210100 03008KT P6SM FEW050 SCT250
     FM210900 04007KT P6SM SCT025 BKN050=



000
FTUS42 KTBW 201700 RRA
TAFSRQ
TAF
KSRQ 201741Z 2018/2118 34009KT P6SM BKN025
     FM210100 03006KT P6SM SCT050 SCT250
     FM210900 05003KT P6SM SCT250
     FM211500 04007KT P6SM SCT250=



000
FTUS42 KTBW 201600 AAC
TAFTPA
TAF AMD
KTPA 201653Z 2017/2112 35008KT P6SM BKN025
     FM210000 01006KT P6SM SCT050 SCT250
     FM210900 03005KT P6SM SCT025 BKN050=



000
FTUS42 KTBW 201600 AAB
TAFPIE
TAF AMD
KPIE 201653Z 2017/2112 36011KT P6SM BKN025
     FM210000 03008KT P6SM SCT050 SCT250
     FM210900 03005KT P6SM SCT025 BKN050=



000
FTUS42 KTBW 201600 AAB
TAFSRQ
TAF AMD
KSRQ 201653Z 2017/2112 34009KT P6SM BKN025
     FM210200 03006KT P6SM SCT050 SCT250=



000
FTUS42 KTBW 201500 AAB
TAFTPA
TAF AMD
KTPA 201504Z 2015/2112 35008KT P6SM SCT010 BKN025
     FM201700 33010KT P6SM SCT025 BKN050
     FM210000 01006KT P6SM SCT050 SCT250=



    US Dept of Commerce
    National Oceanic and Atmospheric Administration
    National Weather Service
    1325 East West Highway
    Silver Spring, MD 20910
    Page Author: NWS Internet Services Team
Disclaimer
Information Quality
Credits
Glossary
Privacy Policy
Freedom of Information Act (FOIA)
About Us
Career Opportunities